sensor_id;sensor_type;location;lat;lon;timestamp;temperature;humidity
35377;DHT22;21480;51.642;4.834;2022-09-29T00:12:28;4.20;99.90
35377;DHT22;21480;51.642;4.834;2022-09-29T00:14:54;4.20;99.90
35377;DHT22;21480;51.642;4.834;2022-09-29T00:17:20;4.20;99.90
35377;DHT22;21480;51.642;4.834;2022-09-29T00:19:46;4.20;99.90
35377;DHT22;21480;51.642;4.834;2022-09-29T00:22:11;4.20;99.90
35377;DHT22;21480;51.642;4.834;2022-09-29T00:24:37;4.20;99.90
35377;DHT22;21480;51.642;4.834;2022-09-29T00:27:03;4.20;99.90
35377;DHT22;21480;51.642;4.834;2022-09-29T00:29:28;4.10;99.90
35377;DHT22;21480;51.642;4.834;2022-09-29T00:31:54;4.10;99.90
35377;DHT22;21480;51.642;4.834;2022-09-29T00:34:20;4.10;99.90
35377;DHT22;21480;51.642;4.834;2022-09-29T00:36:45;4.10;99.90
35377;DHT22;21480;51.642;4.834;2022-09-29T00:39:11;4.10;99.90
35377;DHT22;21480;51.642;4.834;2022-09-29T00:41:38;4.10;99.90
35377;DHT22;21480;51.642;4.834;2022-09-29T00:46:52;4.10;99.90
35377;DHT22;21480;51.642;4.834;2022-09-29T00:49:59;4.00;99.90
35377;DHT22;21480;51.642;4.834;2022-09-29T00:52:36;4.00;99.90
35377;DHT22;21480;51.642;4.834;2022-09-29T00:57:59;3.90;99.90
35377;DHT22;21480;51.642;4.834;2022-09-29T01:00:26;3.90;99.90
35377;DHT22;21480;51.642;4.834;2022-09-29T01:02:58;3.90;99.90
35377;DHT22;21480;51.642;4.834;2022-09-29T01:05:30;3.90;99.90
35377;DHT22;21480;51.642;4.834;2022-09-29T01:08:00;3.90;99.90
35377;DHT22;21480;51.642;4.834;2022-09-29T01:10:27;3.90;99.90
35377;DHT22;21480;51.642;4.834;2022-09-29T01:12:54;3.90;99.90
35377;DHT22;21480;51.642;4.834;2022-09-29T01:15:20;3.90;99.90
35377;DHT22;21480;51.642;4.834;2022-09-29T01:17:47;3.80;99.90
35377;DHT22;21480;51.642;4.834;2022-09-29T01:20:21;3.80;99.90
35377;DHT22;21480;51.642;4.834;2022-09-29T01:28:38;3.70;99.90
35377;DHT22;21480;51.642;4.834;2022-09-29T01:37:53;3.70;99.90
35377;DHT22;21480;51.642;4.834;2022-09-29T01:40:50;3.70;99.90
35377;DHT22;21480;51.642;4.834;2022-09-29T01:43:34;3.70;99.90
35377;DHT22;21480;51.642;4.834;2022-09-29T01:47:04;3.70;99.90
35377;DHT22;21480;51.642;4.834;2022-09-29T01:49:12;3.70;99.90
35377;DHT22;21480;51.642;4.834;2022-09-29T01:51:52;3.70;99.90
35377;DHT22;21480;51.642;4.834;2022-09-29T01:54:23;3.70;99.90
35377;DHT22;21480;51.642;4.834;2022-09-29T01:57:05;3.70;99.90
35377;DHT22;21480;51.642;4.834;2022-09-29T01:59:35;3.60;99.90
35377;DHT22;21480;51.642;4.834;2022-09-29T02:02:07;3.60;99.90
35377;DHT22;21480;51.642;4.834;2022-09-29T02:04:41;3.60;99.90
35377;DHT22;21480;51.642;4.834;2022-09-29T02:07:23;3.50;99.90
35377;DHT22;21480;51.642;4.834;2022-09-29T02:09:57;3.50;99.90
35377;DHT22;21480;51.642;4.834;2022-09-29T02:12:27;3.40;99.90
35377;DHT22;21480;51.642;4.834;2022-09-29T02:14:57;3.40;99.90
35377;DHT22;21480;51.642;4.834;2022-09-29T02:17:30;3.30;99.90
35377;DHT22;21480;51.642;4.834;2022-09-29T02:19:57;3.30;99.90
35377;DHT22;21480;51.642;4.834;2022-09-29T02:22:23;3.20;99.90
35377;DHT22;21480;51.642;4.834;2022-09-29T02:24:51;3.30;99.90
35377;DHT22;21480;51.642;4.834;2022-09-29T02:27:18;3.30;99.90
35377;DHT22;21480;51.642;4.834;2022-09-29T02:29:44;3.30;99.90
35377;DHT22;21480;51.642;4.834;2022-09-29T02:32:10;3.30;99.90
35377;DHT22;21480;51.642;4.834;2022-09-29T02:34:40;3.30;99.90
35377;DHT22;21480;51.642;4.834;2022-09-29T02:46:02;3.20;99.90
35377;DHT22;21480;51.642;4.834;2022-09-29T02:51:38;3.10;99.90
35377;DHT22;21480;51.642;4.834;2022-09-29T02:54:21;3.10;99.90
35377;DHT22;21480;51.642;4.834;2022-09-29T03:00:00;3.10;99.90
35377;DHT22;21480;51.642;4.834;2022-09-29T03:02:31;3.00;99.90
35377;DHT22;21480;51.642;4.834;2022-09-29T03:04:57;3.00;99.90
35377;DHT22;21480;51.642;4.834;2022-09-29T03:07:22;3.00;99.90
35377;DHT22;21480;51.642;4.834;2022-09-29T03:09:48;3.00;99.90
35377;DHT22;21480;51.642;4.834;2022-09-29T03:12:14;3.10;99.90
35377;DHT22;21480;51.642;4.834;2022-09-29T03:14:40;3.00;99.90
35377;DHT22;21480;51.642;4.834;2022-09-29T03:17:06;3.00;99.90
35377;DHT22;21480;51.642;4.834;2022-09-29T03:19:31;2.90;99.90
35377;DHT22;21480;51.642;4.834;2022-09-29T03:21:57;2.90;99.90
35377;DHT22;21480;51.642;4.834;2022-09-29T03:24:23;2.90;99.90
35377;DHT22;21480;51.642;4.834;2022-09-29T03:26:48;2.80;99.90
35377;DHT22;21480;51.642;4.834;2022-09-29T03:29:14;2.80;99.90
35377;DHT22;21480;51.642;4.834;2022-09-29T03:31:40;2.80;99.90
35377;DHT22;21480;51.642;4.834;2022-09-29T03:34:06;2.70;99.90
35377;DHT22;21480;51.642;4.834;2022-09-29T03:36:31;2.70;99.90
35377;DHT22;21480;51.642;4.834;2022-09-29T03:38:57;2.70;99.90
35377;DHT22;21480;51.642;4.834;2022-09-29T03:41:23;2.80;99.90
35377;DHT22;21480;51.642;4.834;2022-09-29T03:43:48;2.80;99.90
35377;DHT22;21480;51.642;4.834;2022-09-29T03:46:15;2.80;99.90
35377;DHT22;21480;51.642;4.834;2022-09-29T03:48:41;2.80;99.90
35377;DHT22;21480;51.642;4.834;2022-09-29T03:51:07;2.80;99.90
35377;DHT22;21480;51.642;4.834;2022-09-29T03:53:34;2.80;99.90
35377;DHT22;21480;51.642;4.834;2022-09-29T03:56:01;2.70;99.90
35377;DHT22;21480;51.642;4.834;2022-09-29T03:58:27;2.60;99.90
35377;DHT22;21480;51.642;4.834;2022-09-29T04:00:52;2.70;99.90
35377;DHT22;21480;51.642;4.834;2022-09-29T04:03:19;2.70;99.90
35377;DHT22;21480;51.642;4.834;2022-09-29T04:05:46;2.70;99.90
35377;DHT22;21480;51.642;4.834;2022-09-29T04:08:12;2.70;99.90
35377;DHT22;21480;51.642;4.834;2022-09-29T04:10:39;2.60;99.90
35377;DHT22;21480;51.642;4.834;2022-09-29T04:13:05;2.60;99.90
35377;DHT22;21480;51.642;4.834;2022-09-29T04:15:31;2.60;99.90
35377;DHT22;21480;51.642;4.834;2022-09-29T04:17:57;2.60;99.90
35377;DHT22;21480;51.642;4.834;2022-09-29T04:20:23;2.50;99.90
35377;DHT22;21480;51.642;4.834;2022-09-29T04:22:49;2.50;99.90
35377;DHT22;21480;51.642;4.834;2022-09-29T04:25:15;2.50;99.90
35377;DHT22;21480;51.642;4.834;2022-09-29T04:27:41;2.60;99.90
35377;DHT22;21480;51.642;4.834;2022-09-29T04:30:08;2.60;99.90
35377;DHT22;21480;51.642;4.834;2022-09-29T04:32:34;2.60;99.90
35377;DHT22;21480;51.642;4.834;2022-09-29T04:34:59;2.60;99.90
35377;DHT22;21480;51.642;4.834;2022-09-29T04:37:25;2.60;99.90
35377;DHT22;21480;51.642;4.834;2022-09-29T04:39:51;2.60;99.90
35377;DHT22;21480;51.642;4.834;2022-09-29T04:42:20;2.60;99.90
35377;DHT22;21480;51.642;4.834;2022-09-29T04:44:45;2.50;99.90
35377;DHT22;21480;51.642;4.834;2022-09-29T04:47:11;2.50;99.90
35377;DHT22;21480;51.642;4.834;2022-09-29T04:49:37;2.40;99.90
35377;DHT22;21480;51.642;4.834;2022-09-29T04:52:03;2.50;99.90
35377;DHT22;21480;51.642;4.834;2022-09-29T04:54:33;2.50;99.90
35377;DHT22;21480;51.642;4.834;2022-09-29T04:56:58;2.50;99.90
35377;DHT22;21480;51.642;4.834;2022-09-29T04:59:26;2.50;99.90
35377;DHT22;21480;51.642;4.834;2022-09-29T05:01:52;2.50;99.90
35377;DHT22;21480;51.642;4.834;2022-09-29T05:04:18;2.50;99.90
35377;DHT22;21480;51.642;4.834;2022-09-29T05:06:44;2.50;99.90
35377;DHT22;21480;51.642;4.834;2022-09-29T05:09:09;2.40;99.90
35377;DHT22;21480;51.642;4.834;2022-09-29T05:11:35;2.40;99.90
35377;DHT22;21480;51.642;4.834;2022-09-29T05:14:01;2.40;99.90
35377;DHT22;21480;51.642;4.834;2022-09-29T05:16:27;2.40;99.90
35377;DHT22;21480;51.642;4.834;2022-09-29T05:18:56;2.40;99.90
35377;DHT22;21480;51.642;4.834;2022-09-29T05:21:22;2.40;99.90
35377;DHT22;21480;51.642;4.834;2022-09-29T05:23:47;2.40;99.90
35377;DHT22;21480;51.642;4.834;2022-09-29T05:26:13;2.40;99.90
35377;DHT22;21480;51.642;4.834;2022-09-29T05:28:43;2.40;99.90
35377;DHT22;21480;51.642;4.834;2022-09-29T05:31:09;2.40;99.90
35377;DHT22;21480;51.642;4.834;2022-09-29T05:33:36;2.40;99.90
35377;DHT22;21480;51.642;4.834;2022-09-29T05:36:07;2.30;99.90
35377;DHT22;21480;51.642;4.834;2022-09-29T05:38:34;2.30;99.90
35377;DHT22;21480;51.642;4.834;2022-09-29T05:41:05;2.30;99.90
35377;DHT22;21480;51.642;4.834;2022-09-29T05:43:31;2.40;99.90
35377;DHT22;21480;51.642;4.834;2022-09-29T05:46:05;2.40;99.90
35377;DHT22;21480;51.642;4.834;2022-09-29T05:48:32;2.40;99.90
35377;DHT22;21480;51.642;4.834;2022-09-29T05:50:58;2.30;99.90
35377;DHT22;21480;51.642;4.834;2022-09-29T05:53:24;2.30;99.90
35377;DHT22;21480;51.642;4.834;2022-09-29T05:55:50;2.40;99.90
35377;DHT22;21480;51.642;4.834;2022-09-29T05:58:16;2.30;99.90
35377;DHT22;21480;51.642;4.834;2022-09-29T06:00:42;2.30;99.90
35377;DHT22;21480;51.642;4.834;2022-09-29T06:03:08;2.30;99.90
35377;DHT22;21480;51.642;4.834;2022-09-29T06:05:37;2.30;99.90
35377;DHT22;21480;51.642;4.834;2022-09-29T06:08:03;2.30;99.90
35377;DHT22;21480;51.642;4.834;2022-09-29T06:10:29;2.40;99.90
35377;DHT22;21480;51.642;4.834;2022-09-29T06:12:55;2.40;99.90
35377;DHT22;21480;51.642;4.834;2022-09-29T06:15:22;2.40;99.90
35377;DHT22;21480;51.642;4.834;2022-09-29T06:17:54;2.50;99.90
35377;DHT22;21480;51.642;4.834;2022-09-29T06:20:20;2.50;99.90
35377;DHT22;21480;51.642;4.834;2022-09-29T06:22:45;2.60;99.90
35377;DHT22;21480;51.642;4.834;2022-09-29T06:25:12;2.60;99.90
35377;DHT22;21480;51.642;4.834;2022-09-29T06:27:38;2.70;99.90
35377;DHT22;21480;51.642;4.834;2022-09-29T06:30:04;2.80;99.90
35377;DHT22;21480;51.642;4.834;2022-09-29T06:32:30;2.90;99.90
35377;DHT22;21480;51.642;4.834;2022-09-29T06:34:56;3.00;99.90
35377;DHT22;21480;51.642;4.834;2022-09-29T06:37:41;3.00;99.90
35377;DHT22;21480;51.642;4.834;2022-09-29T06:40:09;3.10;99.90
35377;DHT22;21480;51.642;4.834;2022-09-29T06:42:36;3.20;99.90
35377;DHT22;21480;51.642;4.834;2022-09-29T06:45:03;3.20;99.90
35377;DHT22;21480;51.642;4.834;2022-09-29T06:47:29;3.30;99.90
35377;DHT22;21480;51.642;4.834;2022-09-29T06:49:54;3.40;99.90
35377;DHT22;21480;51.642;4.834;2022-09-29T06:52:20;3.60;99.90
35377;DHT22;21480;51.642;4.834;2022-09-29T06:54:45;3.70;99.90
35377;DHT22;21480;51.642;4.834;2022-09-29T06:57:11;3.80;99.90
35377;DHT22;21480;51.642;4.834;2022-09-29T06:59:38;4.00;99.90
35377;DHT22;21480;51.642;4.834;2022-09-29T07:02:04;4.10;99.90
35377;DHT22;21480;51.642;4.834;2022-09-29T07:04:29;4.20;99.90
35377;DHT22;21480;51.642;4.834;2022-09-29T07:06:55;4.40;99.90
35377;DHT22;21480;51.642;4.834;2022-09-29T07:09:21;4.50;99.90
35377;DHT22;21480;51.642;4.834;2022-09-29T07:11:51;4.60;99.90
35377;DHT22;21480;51.642;4.834;2022-09-29T07:14:18;4.80;99.90
35377;DHT22;21480;51.642;4.834;2022-09-29T07:16:44;4.90;99.90
35377;DHT22;21480;51.642;4.834;2022-09-29T07:19:11;5.10;99.90
35377;DHT22;21480;51.642;4.834;2022-09-29T07:21:37;5.20;99.90
35377;DHT22;21480;51.642;4.834;2022-09-29T07:24:03;5.30;99.90
35377;DHT22;21480;51.642;4.834;2022-09-29T07:26:28;5.40;99.90
35377;DHT22;21480;51.642;4.834;2022-09-29T07:28:54;5.60;99.90
35377;DHT22;21480;51.642;4.834;2022-09-29T07:31:20;5.80;99.90
35377;DHT22;21480;51.642;4.834;2022-09-29T07:33:48;5.90;99.90
35377;DHT22;21480;51.642;4.834;2022-09-29T07:36:16;6.10;99.90
35377;DHT22;21480;51.642;4.834;2022-09-29T07:38:46;6.20;99.90
35377;DHT22;21480;51.642;4.834;2022-09-29T07:41:12;6.40;99.90
35377;DHT22;21480;51.642;4.834;2022-09-29T07:43:38;6.40;99.90
35377;DHT22;21480;51.642;4.834;2022-09-29T07:46:04;6.60;99.90
35377;DHT22;21480;51.642;4.834;2022-09-29T07:48:32;6.70;99.90
35377;DHT22;21480;51.642;4.834;2022-09-29T07:51:02;6.90;99.90
35377;DHT22;21480;51.642;4.834;2022-09-29T07:53:28;7.00;99.90
35377;DHT22;21480;51.642;4.834;2022-09-29T07:55:54;7.10;99.90
35377;DHT22;21480;51.642;4.834;2022-09-29T07:58:20;7.20;99.90
35377;DHT22;21480;51.642;4.834;2022-09-29T08:00:52;7.30;99.90
35377;DHT22;21480;51.642;4.834;2022-09-29T08:03:18;7.40;99.90
35377;DHT22;21480;51.642;4.834;2022-09-29T08:05:44;7.50;99.90
35377;DHT22;21480;51.642;4.834;2022-09-29T08:08:10;7.50;99.90
35377;DHT22;21480;51.642;4.834;2022-09-29T08:10:35;7.70;99.90
35377;DHT22;21480;51.642;4.834;2022-09-29T08:13:01;7.80;99.90
35377;DHT22;21480;51.642;4.834;2022-09-29T08:15:27;7.90;99.90
35377;DHT22;21480;51.642;4.834;2022-09-29T08:17:54;8.10;99.90
35377;DHT22;21480;51.642;4.834;2022-09-29T08:20:21;8.20;99.90
35377;DHT22;21480;51.642;4.834;2022-09-29T08:22:48;8.30;99.90
35377;DHT22;21480;51.642;4.834;2022-09-29T08:25:17;8.40;99.90
35377;DHT22;21480;51.642;4.834;2022-09-29T08:27:46;8.50;99.90
35377;DHT22;21480;51.642;4.834;2022-09-29T08:30:12;8.60;99.90
35377;DHT22;21480;51.642;4.834;2022-09-29T08:32:37;8.70;99.90
35377;DHT22;21480;51.642;4.834;2022-09-29T08:35:04;8.80;99.90
35377;DHT22;21480;51.642;4.834;2022-09-29T08:37:30;8.90;99.90
35377;DHT22;21480;51.642;4.834;2022-09-29T08:39:56;9.00;99.90
35377;DHT22;21480;51.642;4.834;2022-09-29T08:44:56;9.10;99.90
35377;DHT22;21480;51.642;4.834;2022-09-29T08:47:38;9.20;99.90
35377;DHT22;21480;51.642;4.834;2022-09-29T08:50:10;9.30;99.90
35377;DHT22;21480;51.642;4.834;2022-09-29T08:52:41;9.40;99.90
35377;DHT22;21480;51.642;4.834;2022-09-29T08:57:45;9.60;99.90
35377;DHT22;21480;51.642;4.834;2022-09-29T09:00:13;9.70;99.90
35377;DHT22;21480;51.642;4.834;2022-09-29T09:13:04;10.10;99.90
35377;DHT22;21480;51.642;4.834;2022-09-29T09:23:55;10.60;99.90
35377;DHT22;21480;51.642;4.834;2022-09-29T09:26:42;10.70;99.90
35377;DHT22;21480;51.642;4.834;2022-09-29T09:29:35;10.80;99.90
35377;DHT22;21480;51.642;4.834;2022-09-29T09:32:11;10.80;99.90
35377;DHT22;21480;51.642;4.834;2022-09-29T09:34:45;10.90;99.90
35377;DHT22;21480;51.642;4.834;2022-09-29T09:37:24;11.00;99.90
35377;DHT22;21480;51.642;4.834;2022-09-29T09:42:34;11.20;99.90
35377;DHT22;21480;51.642;4.834;2022-09-29T09:45:05;11.40;99.90
35377;DHT22;21480;51.642;4.834;2022-09-29T09:47:41;11.50;99.90
35377;DHT22;21480;51.642;4.834;2022-09-29T09:50:20;11.70;99.90
35377;DHT22;21480;51.642;4.834;2022-09-29T09:53:03;11.80;99.90
35377;DHT22;21480;51.642;4.834;2022-09-29T09:55:29;11.90;99.90
35377;DHT22;21480;51.642;4.834;2022-09-29T10:01:05;12.20;99.90
35377;DHT22;21480;51.642;4.834;2022-09-29T10:03:32;12.50;99.90
35377;DHT22;21480;51.642;4.834;2022-09-29T10:05:58;12.70;99.90
35377;DHT22;21480;51.642;4.834;2022-09-29T10:08:27;12.90;99.90
35377;DHT22;21480;51.642;4.834;2022-09-29T10:10:55;13.00;99.90
35377;DHT22;21480;51.642;4.834;2022-09-29T10:13:24;13.10;99.90
35377;DHT22;21480;51.642;4.834;2022-09-29T10:15:54;13.40;99.90
35377;DHT22;21480;51.642;4.834;2022-09-29T10:18:54;13.60;99.90
35377;DHT22;21480;51.642;4.834;2022-09-29T10:23:54;14.10;99.90
35377;DHT22;21480;51.642;4.834;2022-09-29T10:29:47;14.00;99.90
35377;DHT22;21480;51.642;4.834;2022-09-29T10:34:25;14.40;99.90
35377;DHT22;21480;51.642;4.834;2022-09-29T10:36:57;14.30;99.90
35377;DHT22;21480;51.642;4.834;2022-09-29T10:42:34;14.80;99.90
35377;DHT22;21480;51.642;4.834;2022-09-29T10:47:36;15.20;99.90
35377;DHT22;21480;51.642;4.834;2022-09-29T10:50:10;15.40;99.90
35377;DHT22;21480;51.642;4.834;2022-09-29T10:52:37;15.70;99.90
35377;DHT22;21480;51.642;4.834;2022-09-29T10:55:16;15.40;99.90
35377;DHT22;21480;51.642;4.834;2022-09-29T10:57:44;15.50;99.90
35377;DHT22;21480;51.642;4.834;2022-09-29T11:02:50;15.90;99.90
35377;DHT22;21480;51.642;4.834;2022-09-29T11:05:21;15.80;99.90
35377;DHT22;21480;51.642;4.834;2022-09-29T11:07:51;16.00;99.90
35377;DHT22;21480;51.642;4.834;2022-09-29T11:10:33;16.10;99.90
35377;DHT22;21480;51.642;4.834;2022-09-29T11:15:46;16.30;99.90
35377;DHT22;21480;51.642;4.834;2022-09-29T11:18:23;16.50;99.90
35377;DHT22;21480;51.642;4.834;2022-09-29T11:35:26;17.00;99.90
35377;DHT22;21480;51.642;4.834;2022-09-29T11:43:43;17.30;99.90
35377;DHT22;21480;51.642;4.834;2022-09-29T11:49:17;17.90;99.90
35377;DHT22;21480;51.642;4.834;2022-09-29T11:51:47;18.00;99.90
35377;DHT22;21480;51.642;4.834;2022-09-29T12:00:12;18.50;99.90
35377;DHT22;21480;51.642;4.834;2022-09-29T12:10:57;21.50;99.90
35377;DHT22;21480;51.642;4.834;2022-09-29T12:16:15;18.90;99.90
35377;DHT22;21480;51.642;4.834;2022-09-29T12:21:38;17.40;99.90
35377;DHT22;21480;51.642;4.834;2022-09-29T12:24:14;17.00;99.90
35377;DHT22;21480;51.642;4.834;2022-09-29T12:26:42;17.00;99.90
35377;DHT22;21480;51.642;4.834;2022-09-29T12:31:51;16.40;99.90
35377;DHT22;21480;51.642;4.834;2022-09-29T12:34:22;16.00;99.90
35377;DHT22;21480;51.642;4.834;2022-09-29T12:36:58;15.80;99.90
35377;DHT22;21480;51.642;4.834;2022-09-29T12:39:51;15.90;99.90
35377;DHT22;21480;51.642;4.834;2022-09-29T12:50:31;18.50;99.90
35377;DHT22;21480;51.642;4.834;2022-09-29T12:53:05;19.10;99.90
35377;DHT22;21480;51.642;4.834;2022-09-29T12:55:56;19.70;99.90
35377;DHT22;21480;51.642;4.834;2022-09-29T13:01:02;21.80;99.90
35377;DHT22;21480;51.642;4.834;2022-09-29T13:06:31;22.70;99.90
35377;DHT22;21480;51.642;4.834;2022-09-29T13:11:57;22.70;99.90
35377;DHT22;21480;51.642;4.834;2022-09-29T13:20:14;23.10;99.90
35377;DHT22;21480;51.642;4.834;2022-09-29T13:28:30;24.80;91.50
35377;DHT22;21480;51.642;4.834;2022-09-29T13:31:02;25.20;91.70
35377;DHT22;21480;51.642;4.834;2022-09-29T13:33:29;25.30;86.50
35377;DHT22;21480;51.642;4.834;2022-09-29T13:35:55;26.00;89.80
35377;DHT22;21480;51.642;4.834;2022-09-29T13:38:30;26.50;85.10
35377;DHT22;21480;51.642;4.834;2022-09-29T13:49:10;26.20;83.40
35377;DHT22;21480;51.642;4.834;2022-09-29T13:51:44;26.20;80.10
35377;DHT22;21480;51.642;4.834;2022-09-29T14:04:56;25.80;85.20
35377;DHT22;21480;51.642;4.834;2022-09-29T14:07:47;26.00;76.90
35377;DHT22;21480;51.642;4.834;2022-09-29T14:13:12;25.70;75.20
35377;DHT22;21480;51.642;4.834;2022-09-29T14:21:53;25.60;82.60
35377;DHT22;21480;51.642;4.834;2022-09-29T14:30:08;24.90;76.10
35377;DHT22;21480;51.642;4.834;2022-09-29T14:35:19;24.90;78.30
35377;DHT22;21480;51.642;4.834;2022-09-29T14:38:38;25.20;73.50
35377;DHT22;21480;51.642;4.834;2022-09-29T14:40:37;25.70;76.40
35377;DHT22;21480;51.642;4.834;2022-09-29T14:43:14;25.90;70.20
35377;DHT22;21480;51.642;4.834;2022-09-29T14:49:00;26.30;70.90
35377;DHT22;21480;51.642;4.834;2022-09-29T15:00:24;24.40;69.20
35377;DHT22;21480;51.642;4.834;2022-09-29T15:02:55;24.70;67.30
35377;DHT22;21480;51.642;4.834;2022-09-29T15:05:32;24.80;70.50
35377;DHT22;21480;51.642;4.834;2022-09-29T15:08:00;25.00;71.80
35377;DHT22;21480;51.642;4.834;2022-09-29T15:10:29;24.60;71.30
35377;DHT22;21480;51.642;4.834;2022-09-29T15:13:24;23.80;69.80
35377;DHT22;21480;51.642;4.834;2022-09-29T15:16:10;23.10;72.70
35377;DHT22;21480;51.642;4.834;2022-09-29T15:21:14;21.20;79.20
35377;DHT22;21480;51.642;4.834;2022-09-29T15:24:11;20.40;82.80
35377;DHT22;21480;51.642;4.834;2022-09-29T15:26:43;19.70;88.20
35377;DHT22;21480;51.642;4.834;2022-09-29T15:29:14;19.30;91.90
35377;DHT22;21480;51.642;4.834;2022-09-29T15:31:43;18.80;92.40
35377;DHT22;21480;51.642;4.834;2022-09-29T15:34:17;18.50;95.40
35377;DHT22;21480;51.642;4.834;2022-09-29T15:36:55;18.00;97.10
35377;DHT22;21480;51.642;4.834;2022-09-29T15:42:00;17.60;99.90
35377;DHT22;21480;51.642;4.834;2022-09-29T15:44:31;17.50;99.90
35377;DHT22;21480;51.642;4.834;2022-09-29T15:46:59;17.40;99.90
35377;DHT22;21480;51.642;4.834;2022-09-29T15:49:28;17.20;99.90
35377;DHT22;21480;51.642;4.834;2022-09-29T15:54:23;16.70;99.90
35377;DHT22;21480;51.642;4.834;2022-09-29T15:56:50;16.60;99.90
35377;DHT22;21480;51.642;4.834;2022-09-29T15:59:48;16.30;99.90
35377;DHT22;21480;51.642;4.834;2022-09-29T16:04:54;16.10;99.90
35377;DHT22;21480;51.642;4.834;2022-09-29T16:07:27;16.00;99.90
35377;DHT22;21480;51.642;4.834;2022-09-29T16:10:02;15.90;99.90
35377;DHT22;21480;51.642;4.834;2022-09-29T16:12:31;15.80;99.90
35377;DHT22;21480;51.642;4.834;2022-09-29T16:14:58;15.80;99.90
35377;DHT22;21480;51.642;4.834;2022-09-29T16:17:24;15.80;99.90
35377;DHT22;21480;51.642;4.834;2022-09-29T16:19:50;15.70;99.90
35377;DHT22;21480;51.642;4.834;2022-09-29T16:22:23;15.80;99.90
35377;DHT22;21480;51.642;4.834;2022-09-29T16:25:38;15.70;99.90
35377;DHT22;21480;51.642;4.834;2022-09-29T16:28:09;15.70;99.90
35377;DHT22;21480;51.642;4.834;2022-09-29T16:31:00;15.60;99.90
35377;DHT22;21480;51.642;4.834;2022-09-29T16:33:27;15.50;99.90
35377;DHT22;21480;51.642;4.834;2022-09-29T16:40:52;15.10;99.90
35377;DHT22;21480;51.642;4.834;2022-09-29T16:43:27;15.00;99.90
35377;DHT22;21480;51.642;4.834;2022-09-29T16:46:00;14.90;99.90
35377;DHT22;21480;51.642;4.834;2022-09-29T16:48:28;14.60;99.90
35377;DHT22;21480;51.642;4.834;2022-09-29T16:50:59;14.30;99.90
35377;DHT22;21480;51.642;4.834;2022-09-29T16:53:31;14.00;99.90
35377;DHT22;21480;51.642;4.834;2022-09-29T16:56:07;13.70;99.90
35377;DHT22;21480;51.642;4.834;2022-09-29T16:58:35;13.40;99.90
35377;DHT22;21480;51.642;4.834;2022-09-29T17:01:02;13.00;99.90
35377;DHT22;21480;51.642;4.834;2022-09-29T17:03:28;12.70;99.90
35377;DHT22;21480;51.642;4.834;2022-09-29T17:05:56;12.50;99.90
35377;DHT22;21480;51.642;4.834;2022-09-29T17:08:27;12.30;99.90
35377;DHT22;21480;51.642;4.834;2022-09-29T17:10:55;12.10;99.90
35377;DHT22;21480;51.642;4.834;2022-09-29T17:13:21;12.00;99.90
35377;DHT22;21480;51.642;4.834;2022-09-29T17:15:50;11.80;99.90
35377;DHT22;21480;51.642;4.834;2022-09-29T17:18:17;11.60;99.90
35377;DHT22;21480;51.642;4.834;2022-09-29T17:20:43;11.50;99.90
35377;DHT22;21480;51.642;4.834;2022-09-29T17:23:09;11.30;99.90
35377;DHT22;21480;51.642;4.834;2022-09-29T17:25:38;11.20;99.90
35377;DHT22;21480;51.642;4.834;2022-09-29T17:30:44;10.90;99.90
35377;DHT22;21480;51.642;4.834;2022-09-29T17:33:16;10.70;99.90
35377;DHT22;21480;51.642;4.834;2022-09-29T17:35:44;10.60;99.90
35377;DHT22;21480;51.642;4.834;2022-09-29T17:38:12;10.50;99.90
35377;DHT22;21480;51.642;4.834;2022-09-29T17:41:00;10.40;99.90
35377;DHT22;21480;51.642;4.834;2022-09-29T17:43:31;10.20;99.90
35377;DHT22;21480;51.642;4.834;2022-09-29T17:45:59;10.20;99.90
35377;DHT22;21480;51.642;4.834;2022-09-29T17:48:26;10.00;99.90
35377;DHT22;21480;51.642;4.834;2022-09-29T17:50:55;10.00;99.90
35377;DHT22;21480;51.642;4.834;2022-09-29T17:53:23;9.80;99.90
35377;DHT22;21480;51.642;4.834;2022-09-29T17:55:51;9.70;99.90
35377;DHT22;21480;51.642;4.834;2022-09-29T17:58:19;9.60;99.90
35377;DHT22;21480;51.642;4.834;2022-09-29T18:00:50;9.60;99.90
35377;DHT22;21480;51.642;4.834;2022-09-29T18:03:20;9.50;99.90
35377;DHT22;21480;51.642;4.834;2022-09-29T18:05:48;9.40;99.90
35377;DHT22;21480;51.642;4.834;2022-09-29T18:08:21;9.30;99.90
35377;DHT22;21480;51.642;4.834;2022-09-29T18:10:52;9.30;99.90
35377;DHT22;21480;51.642;4.834;2022-09-29T18:13:18;9.20;99.90
35377;DHT22;21480;51.642;4.834;2022-09-29T18:15:44;9.10;99.90
35377;DHT22;21480;51.642;4.834;2022-09-29T18:18:13;8.90;99.90
35377;DHT22;21480;51.642;4.834;2022-09-29T18:20:43;8.90;99.90
35377;DHT22;21480;51.642;4.834;2022-09-29T18:23:11;8.80;99.90
35377;DHT22;21480;51.642;4.834;2022-09-29T18:25:40;8.70;99.90
35377;DHT22;21480;51.642;4.834;2022-09-29T18:28:10;8.70;99.90
35377;DHT22;21480;51.642;4.834;2022-09-29T18:30:36;8.60;99.90
35377;DHT22;21480;51.642;4.834;2022-09-29T18:33:15;8.50;99.90
35377;DHT22;21480;51.642;4.834;2022-09-29T18:35:43;8.50;99.90
35377;DHT22;21480;51.642;4.834;2022-09-29T18:38:10;8.40;99.90
35377;DHT22;21480;51.642;4.834;2022-09-29T18:40:37;8.30;99.90
35377;DHT22;21480;51.642;4.834;2022-09-29T18:43:04;8.20;99.90
35377;DHT22;21480;51.642;4.834;2022-09-29T18:45:34;8.10;99.90
35377;DHT22;21480;51.642;4.834;2022-09-29T18:48:02;8.10;99.90
35377;DHT22;21480;51.642;4.834;2022-09-29T18:50:31;8.10;99.90
35377;DHT22;21480;51.642;4.834;2022-09-29T18:52:58;8.10;99.90
35377;DHT22;21480;51.642;4.834;2022-09-29T18:55:27;8.20;99.90
35377;DHT22;21480;51.642;4.834;2022-09-29T18:57:54;8.10;99.90
35377;DHT22;21480;51.642;4.834;2022-09-29T19:00:22;8.10;99.90
35377;DHT22;21480;51.642;4.834;2022-09-29T19:02:49;8.00;99.90
35377;DHT22;21480;51.642;4.834;2022-09-29T19:05:21;7.90;99.90
35377;DHT22;21480;51.642;4.834;2022-09-29T19:07:52;7.80;99.90
35377;DHT22;21480;51.642;4.834;2022-09-29T19:10:18;7.80;99.90
35377;DHT22;21480;51.642;4.834;2022-09-29T19:12:45;7.70;99.90
35377;DHT22;21480;51.642;4.834;2022-09-29T19:15:17;7.60;99.90
35377;DHT22;21480;51.642;4.834;2022-09-29T19:17:43;7.60;99.90
35377;DHT22;21480;51.642;4.834;2022-09-29T19:20:10;7.60;99.90
35377;DHT22;21480;51.642;4.834;2022-09-29T19:22:38;7.50;99.90
35377;DHT22;21480;51.642;4.834;2022-09-29T19:25:10;7.50;99.90
35377;DHT22;21480;51.642;4.834;2022-09-29T19:27:38;7.40;99.90
35377;DHT22;21480;51.642;4.834;2022-09-29T19:30:05;7.40;99.90
35377;DHT22;21480;51.642;4.834;2022-09-29T19:32:31;7.30;99.90
35377;DHT22;21480;51.642;4.834;2022-09-29T19:34:57;7.20;99.90
35377;DHT22;21480;51.642;4.834;2022-09-29T19:37:23;7.20;99.90
35377;DHT22;21480;51.642;4.834;2022-09-29T19:39:50;7.20;99.90
35377;DHT22;21480;51.642;4.834;2022-09-29T19:42:16;7.10;99.90
35377;DHT22;21480;51.642;4.834;2022-09-29T19:44:42;7.10;99.90
35377;DHT22;21480;51.642;4.834;2022-09-29T19:47:09;7.00;99.90
35377;DHT22;21480;51.642;4.834;2022-09-29T19:49:34;6.90;99.90